Time;durP1;ratioP1;P1;durP2;ratioP2;P2;SDS_P1;SDS_P2;PMS_P1;PMS_P2;Temp;Humidity;BMP_temperature;BMP_pressure;BME280_temperature;BME280_humidity;BME280_pressure;Samples;Min_cycle;Max_cycle;Signal;HPM_P1;HPM_P2
2023/03/20 00:00:09;;;;;;;8.40;6.37;;;9.90;99.90;;;;;;5047051;28;20216;-32
2023/03/20 00:02:38;;;;;;;10.77;7.00;;;9.80;99.90;;;;;;5047134;28;20266;-32
2023/03/20 00:05:27;;;;;;;9.10;6.17;;;9.80;99.90;;;;;;5047256;28;20218;-31
2023/03/20 00:07:57;;;;;;;8.87;5.80;;;9.70;99.90;;;;;;5046762;28;20208;-31
2023/03/20 00:10:37;;;;;;;8.87;6.43;;;9.70;99.90;;;;;;5047141;28;20546;-32
2023/03/20 00:13:11;;;;;;;10.23;7.20;;;9.70;99.90;;;;;;5047168;28;20681;-32
2023/03/20 00:15:41;;;;;;;10.57;6.53;;;9.60;99.90;;;;;;5046282;28;20224;-32
2023/03/20 00:18:17;;;;;;;8.00;6.20;;;9.60;99.90;;;;;;5046643;28;20701;-32
2023/03/20 00:20:50;;;;;;;11.53;6.53;;;9.50;99.90;;;;;;5062224;28;20569;-31
2023/03/20 00:23:20;;;;;;;7.80;6.30;;;9.50;99.90;;;;;;5046674;28;20311;-32
2023/03/20 00:25:54;;;;;;;9.17;7.10;;;9.50;99.90;;;;;;5045212;28;20192;-31
2023/03/20 00:28:22;;;;;;;8.93;6.37;;;9.40;99.90;;;;;;5045459;28;20239;-31
2023/03/20 00:30:51;;;;;;;10.57;6.70;;;9.40;99.90;;;;;;5061379;28;20277;-32
2023/03/20 00:33:21;;;;;;;9.47;6.60;;;9.40;99.90;;;;;;5061518;28;20750;-31
2023/03/20 00:35:50;;;;;;;11.37;6.83;;;9.40;99.90;;;;;;5062020;28;20587;-32
2023/03/20 00:38:20;;;;;;;10.47;7.33;;;9.30;99.90;;;;;;5046573;28;20780;-31
2023/03/20 00:40:50;;;;;;;8.23;6.43;;;9.30;99.90;;;;;;5028651;28;20564;-32
2023/03/20 00:43:21;;;;;;;14.57;7.50;;;9.30;99.90;;;;;;5061340;28;20208;-31
2023/03/20 00:45:51;;;;;;;8.77;6.93;;;9.30;99.90;;;;;;5028001;28;20368;-32
2023/03/20 00:48:21;;;;;;;10.37;6.90;;;9.20;99.90;;;;;;5046220;28;20325;-32
2023/03/20 00:50:53;;;;;;;8.00;6.77;;;9.20;99.90;;;;;;5061229;28;20214;-31
2023/03/20 00:53:22;;;;;;;9.30;7.03;;;9.20;99.90;;;;;;5046310;28;20238;-31
2023/03/20 00:55:50;;;;;;;8.67;7.00;;;9.20;99.90;;;;;;5046203;28;20316;-32
2023/03/20 00:58:20;;;;;;;10.03;6.87;;;9.20;99.90;;;;;;5061075;28;20670;-34
2023/03/20 01:00:49;;;;;;;11.00;7.50;;;9.10;99.90;;;;;;5044820;28;20208;-33
2023/03/20 01:03:28;;;;;;;10.47;6.70;;;9.10;99.90;;;;;;5044912;28;20228;-32
2023/03/20 01:05:58;;;;;;;13.03;8.00;;;9.10;99.90;;;;;;5061481;28;20266;-32
2023/03/20 01:08:29;;;;;;;9.97;7.40;;;9.10;99.90;;;;;;5061286;28;20249;-32
2023/03/20 01:10:57;;;;;;;10.67;7.33;;;9.10;99.90;;;;;;5046067;28;20196;-31
2023/03/20 01:13:27;;;;;;;10.10;7.57;;;9.10;99.90;;;;;;5046238;28;20247;-31
2023/03/20 01:16:01;;;;;;;10.97;7.33;;;9.10;99.90;;;;;;5046099;28;20230;-32
2023/03/20 01:18:30;;;;;;;12.60;7.80;;;9.10;99.90;;;;;;5061169;28;20203;-32
2023/03/20 01:20:59;;;;;;;11.63;7.20;;;9.10;99.90;;;;;;5046391;28;20222;-32
2023/03/20 01:23:31;;;;;;;9.90;7.43;;;9.10;99.90;;;;;;5044521;28;20254;-32
2023/03/20 01:26:01;;;;;;;9.83;7.40;;;9.10;99.90;;;;;;5046364;28;20212;-32
2023/03/20 01:28:30;;;;;;;9.87;7.10;;;9.00;99.90;;;;;;5046117;28;20314;-31
2023/03/20 01:30:58;;;;;;;9.63;7.07;;;9.00;99.90;;;;;;5028063;28;20227;-32
2023/03/20 01:33:28;;;;;;;8.87;7.20;;;9.00;99.90;;;;;;5061003;28;20200;-31
2023/03/20 01:35:56;;;;;;;11.07;7.73;;;9.00;99.90;;;;;;5060521;28;20641;-32
2023/03/20 01:38:26;;;;;;;9.03;6.70;;;9.00;99.90;;;;;;5060467;28;20283;-32
2023/03/20 01:41:09;;;;;;;11.70;7.83;;;9.00;99.90;;;;;;5045882;28;20282;-31
2023/03/20 01:43:36;;;;;;;11.10;7.40;;;9.10;99.90;;;;;;5045483;28;20215;-32
2023/03/20 01:46:30;;;;;;;13.90;7.93;;;9.00;99.90;;;;;;5044115;28;20204;-32
2023/03/20 01:49:06;;;;;;;9.77;7.00;;;9.10;99.90;;;;;;5045727;28;20709;-32
2023/03/20 01:51:35;;;;;;;10.53;7.50;;;9.10;99.90;;;;;;5045783;28;20598;-32
2023/03/20 01:54:11;;;;;;;9.80;6.93;;;9.20;99.90;;;;;;5060375;28;20236;-32
2023/03/20 01:56:45;;;;;;;9.43;7.03;;;9.20;99.90;;;;;;5060549;28;20223;-31
2023/03/20 01:59:27;;;;;;;10.17;7.27;;;9.20;99.90;;;;;;5059957;28;20327;-31
2023/03/20 02:01:57;;;;;;;10.23;7.83;;;9.20;99.90;;;;;;5045417;28;20232;-32
2023/03/20 02:04:32;;;;;;;9.53;7.17;;;9.20;99.90;;;;;;5043999;28;20291;-31
2023/03/20 02:07:00;;;;;;;11.13;7.63;;;9.30;99.90;;;;;;5047308;28;20212;-32
2023/03/20 02:09:29;;;;;;;11.20;7.90;;;9.30;99.90;;;;;;5031175;28;20232;-31
2023/03/20 02:12:00;;;;;;;11.67;7.73;;;9.30;99.90;;;;;;5048813;28;20314;-32
2023/03/20 02:14:31;;;;;;;11.87;7.20;;;9.30;99.90;;;;;;5047510;28;20226;-31
2023/03/20 02:17:01;;;;;;;12.83;8.20;;;9.30;99.90;;;;;;5048362;28;20228;-32
2023/03/20 02:19:33;;;;;;;13.80;7.63;;;9.40;99.90;;;;;;5047357;28;20199;-31
2023/03/20 02:22:53;;;;;;;12.57;8.03;;;9.40;99.90;;;;;;5048825;28;20466;-32
2023/03/20 02:25:37;;;;;;;12.27;8.27;;;9.40;99.90;;;;;;5048755;28;20197;-31
2023/03/20 02:28:42;;;;;;;11.60;8.50;;;9.40;99.90;;;;;;5063937;28;20341;-32
2023/03/20 02:31:34;;;;;;;11.30;8.30;;;9.30;99.90;;;;;;5061932;28;20281;-32
2023/03/20 02:34:22;;;;;;;9.60;7.57;;;9.30;99.90;;;;;;5047581;28;20291;-32
2023/03/20 02:37:24;;;;;;;13.97;8.90;;;9.30;99.90;;;;;;5063258;28;20618;-32
2023/03/20 02:40:01;;;;;;;13.43;8.57;;;9.30;99.90;;;;;;5048935;28;20214;-32
2023/03/20 02:42:50;;;;;;;13.53;9.10;;;9.30;99.90;;;;;;5048773;28;20555;-32
2023/03/20 02:45:26;;;;;;;14.30;8.77;;;9.30;99.90;;;;;;5064116;28;20228;-32
2023/03/20 02:47:59;;;;;;;13.53;9.40;;;9.30;99.90;;;;;;5047177;28;20192;-32
2023/03/20 02:50:39;;;;;;;15.70;9.37;;;9.30;99.90;;;;;;5048618;28;20231;-32
2023/03/20 02:53:21;;;;;;;14.53;9.60;;;9.30;99.90;;;;;;5063296;28;20243;-32
2023/03/20 02:56:16;;;;;;;14.70;9.57;;;9.30;99.90;;;;;;5048390;28;20726;-32
2023/03/20 02:59:03;;;;;;;15.67;9.70;;;9.30;99.90;;;;;;5048947;28;20622;-31
2023/03/20 03:01:38;;;;;;;14.33;9.53;;;9.30;99.90;;;;;;5047995;28;20207;-32
2023/03/20 03:04:16;;;;;;;14.90;10.43;;;9.30;99.90;;;;;;5048375;28;20196;-32
2023/03/20 03:06:54;;;;;;;12.80;9.67;;;9.30;99.90;;;;;;5046607;28;20204;-32
2023/03/20 03:09:23;;;;;;;14.67;9.93;;;9.30;99.90;;;;;;5047536;28;20557;-32
2023/03/20 03:12:06;;;;;;;13.40;9.73;;;9.20;99.90;;;;;;5063113;28;20549;-31
2023/03/20 03:14:36;;;;;;;15.73;10.30;;;9.20;99.90;;;;;;5063684;28;20204;-32
2023/03/20 03:17:07;;;;;;;13.57;9.53;;;9.20;99.90;;;;;;5047910;28;20228;-32
2023/03/20 03:19:38;;;;;;;13.40;9.50;;;9.20;99.90;;;;;;5046700;28;20513;-31
2023/03/20 03:22:07;;;;;;;15.07;9.93;;;9.20;99.90;;;;;;5046166;28;20307;-32
2023/03/20 03:24:40;;;;;;;19.70;10.77;;;9.20;99.90;;;;;;5047158;28;20683;-32
2023/03/20 03:27:32;;;;;;;17.53;11.00;;;9.20;99.90;;;;;;5047174;28;20262;-31
2023/03/20 03:30:07;;;;;;;16.57;9.77;;;9.20;99.90;;;;;;5047316;28;20247;-32
2023/03/20 03:32:41;;;;;;;15.63;10.20;;;9.10;99.90;;;;;;5062084;28;20327;-31
2023/03/20 03:35:19;;;;;;;17.47;10.17;;;9.20;99.90;;;;;;5047186;28;20207;-32
2023/03/20 03:37:55;;;;;;;16.70;10.27;;;9.20;99.90;;;;;;5046790;28;20677;-31
2023/03/20 03:40:38;;;;;;;17.03;10.47;;;9.10;99.90;;;;;;5047020;28;20738;-32
2023/03/20 03:43:31;;;;;;;19.00;10.87;;;9.20;99.90;;;;;;5047120;28;20315;-32
2023/03/20 03:46:11;;;;;;;16.87;10.43;;;9.10;99.90;;;;;;5047082;28;20299;-31
2023/03/20 03:48:54;;;;;;;19.17;10.93;;;9.10;99.90;;;;;;5046969;28;20212;-32
2023/03/20 03:51:28;;;;;;;16.13;10.40;;;9.10;99.90;;;;;;5061527;28;20219;-32
2023/03/20 03:54:03;;;;;;;18.13;11.37;;;9.10;99.90;;;;;;5046878;28;20246;-31
2023/03/20 03:56:36;;;;;;;17.90;11.33;;;9.10;99.90;;;;;;5046516;28;20591;-32
2023/03/20 03:59:14;;;;;;;18.63;11.43;;;9.10;99.90;;;;;;5047014;28;20219;-32
2023/03/20 04:01:43;;;;;;;18.47;11.70;;;9.10;99.90;;;;;;5045329;28;20192;-31
2023/03/20 04:04:14;;;;;;;17.10;11.53;;;9.10;99.90;;;;;;5046661;28;20694;-32
2023/03/20 04:06:41;;;;;;;18.57;11.67;;;9.20;99.90;;;;;;5045171;28;20192;-33
2023/03/20 04:09:08;;;;;;;20.53;12.43;;;9.20;99.90;;;;;;5045346;28;20206;-32
2023/03/20 04:11:38;;;;;;;17.30;11.53;;;9.20;99.90;;;;;;5045590;28;20196;-32
2023/03/20 04:14:06;;;;;;;18.53;11.83;;;9.20;99.90;;;;;;5046673;28;20670;-31
2023/03/20 04:16:33;;;;;;;18.77;12.00;;;9.20;99.90;;;;;;5045538;28;20231;-32
2023/03/20 04:19:00;;;;;;;18.27;12.13;;;9.20;99.90;;;;;;5046845;28;20195;-32
2023/03/20 04:21:30;;;;;;;22.53;13.10;;;9.20;99.90;;;;;;5047501;28;20203;-32
2023/03/20 04:23:57;;;;;;;21.90;12.40;;;9.20;99.90;;;;;;5062240;28;20200;-32
2023/03/20 04:26:27;;;;;;;21.30;11.63;;;9.20;99.90;;;;;;5047015;28;20244;-32
2023/03/20 04:28:54;;;;;;;20.17;13.07;;;9.20;99.90;;;;;;5046127;28;20636;-32
2023/03/20 04:31:23;;;;;;;19.47;12.07;;;9.20;99.90;;;;;;5046296;28;21037;-32
2023/03/20 04:33:57;;;;;;;18.03;11.77;;;9.20;99.90;;;;;;5061274;28;20753;-33
2023/03/20 04:36:28;;;;;;;21.97;12.67;;;9.20;99.90;;;;;;5061394;28;20305;-31
2023/03/20 04:38:55;;;;;;;16.83;11.53;;;9.20;99.90;;;;;;5046639;28;20287;-32
2023/03/20 04:41:26;;;;;;;20.60;12.27;;;9.20;99.90;;;;;;5044869;28;20690;-32
2023/03/20 04:43:53;;;;;;;19.53;11.93;;;9.20;99.90;;;;;;5044921;28;20737;-31
2023/03/20 04:46:22;;;;;;;17.17;12.00;;;9.20;99.90;;;;;;5046565;28;20224;-32
2023/03/20 04:48:49;;;;;;;21.37;11.90;;;9.20;99.90;;;;;;5045203;28;20195;-32
2023/03/20 04:51:16;;;;;;;19.00;11.13;;;9.20;99.90;;;;;;5061404;28;20234;-31
2023/03/20 04:53:44;;;;;;;21.33;11.80;;;9.20;99.90;;;;;;5045611;28;20664;-31
2023/03/20 04:56:13;;;;;;;19.30;12.10;;;9.20;99.90;;;;;;5060651;28;20232;-32
2023/03/20 04:58:43;;;;;;;20.17;11.63;;;9.20;99.90;;;;;;5045471;28;20200;-32
2023/03/20 05:01:10;;;;;;;17.50;11.40;;;9.20;99.90;;;;;;5045840;28;20784;-32
2023/03/20 05:03:38;;;;;;;19.70;10.90;;;9.20;99.90;;;;;;5045705;28;20678;-31
2023/03/20 05:06:08;;;;;;;18.27;11.03;;;9.10;99.90;;;;;;5045487;28;20192;-31
2023/03/20 05:08:37;;;;;;;18.87;12.20;;;9.10;99.90;;;;;;5060582;28;20196;-32
2023/03/20 05:11:05;;;;;;;24.20;12.27;;;9.10;99.90;;;;;;5045568;28;20725;-32
2023/03/20 05:13:33;;;;;;;18.97;12.13;;;9.10;99.90;;;;;;5044119;28;20710;-32
2023/03/20 05:16:02;;;;;;;16.70;11.13;;;9.20;99.90;;;;;;5044055;28;20334;-32
2023/03/20 05:18:36;;;;;;;20.97;11.13;;;9.20;99.90;;;;;;5044066;28;20192;-31
2023/03/20 05:21:06;;;;;;;21.27;12.00;;;9.20;99.90;;;;;;5045587;28;20222;-32
2023/03/20 05:23:36;;;;;;;19.80;12.03;;;9.10;99.90;;;;;;5044014;28;20204;-32
2023/03/20 05:26:08;;;;;;;21.90;12.17;;;9.10;99.90;;;;;;5045606;28;20283;-32
2023/03/20 05:28:37;;;;;;;16.13;10.47;;;9.10;99.90;;;;;;5044555;28;20308;-31
2023/03/20 05:31:05;;;;;;;19.23;11.07;;;9.10;99.90;;;;;;5044806;28;21041;-32
2023/03/20 05:33:32;;;;;;;19.17;11.33;;;9.10;99.90;;;;;;5060528;28;20208;-32
2023/03/20 05:36:07;;;;;;;16.40;9.70;;;9.10;99.90;;;;;;5044621;28;20242;-32
2023/03/20 05:38:35;;;;;;;19.43;11.07;;;9.10;99.90;;;;;;5060768;28;20209;-32
2023/03/20 05:41:02;;;;;;;17.33;10.63;;;9.10;99.90;;;;;;5061470;28;20288;-32
2023/03/20 05:43:29;;;;;;;21.77;11.40;;;9.20;99.90;;;;;;5048350;28;20299;-31
2023/03/20 05:45:56;;;;;;;15.73;10.07;;;9.20;99.90;;;;;;5047995;28;20311;-32
2023/03/20 05:48:23;;;;;;;19.00;10.30;;;9.10;99.90;;;;;;5049513;28;20200;-32
2023/03/20 05:50:53;;;;;;;14.97;9.70;;;9.10;99.90;;;;;;5048557;28;20642;-31
2023/03/20 05:53:22;;;;;;;15.57;9.97;;;9.10;99.90;;;;;;5047976;28;20326;-31
2023/03/20 05:55:49;;;;;;;16.37;10.53;;;9.20;99.90;;;;;;5064296;28;20212;-32
2023/03/20 05:58:17;;;;;;;20.33;10.10;;;9.20;99.90;;;;;;5049208;28;20233;-31
2023/03/20 06:00:44;;;;;;;18.90;10.10;;;9.20;99.90;;;;;;5047809;28;20224;-31
2023/03/20 06:03:11;;;;;;;19.70;10.47;;;9.20;99.90;;;;;;5047627;28;20244;-32
2023/03/20 06:05:38;;;;;;;18.40;10.53;;;9.20;99.90;;;;;;5047727;28;20200;-32
2023/03/20 06:08:08;;;;;;;17.43;9.83;;;9.20;99.90;;;;;;5047570;28;20283;-32
2023/03/20 06:10:35;;;;;;;16.13;9.27;;;9.20;99.90;;;;;;5064347;28;20193;-32
2023/03/20 06:13:06;;;;;;;16.00;8.90;;;9.20;99.90;;;;;;5047547;28;20700;-32
2023/03/20 06:15:33;;;;;;;26.00;10.90;;;9.20;99.90;;;;;;5047707;28;20302;-32
2023/03/20 06:18:06;;;;;;;14.07;9.07;;;9.30;99.90;;;;;;5049318;28;20235;-32
2023/03/20 06:20:35;;;;;;;17.47;8.67;;;9.30;99.90;;;;;;5063589;28;20208;-32
2023/03/20 06:23:05;;;;;;;22.07;8.90;;;9.30;99.90;;;;;;5064025;28;20204;-32
2023/03/20 06:25:34;;;;;;;17.77;8.97;;;9.30;99.90;;;;;;5048464;28;20283;-32
2023/03/20 06:28:04;;;;;;;13.77;8.80;;;9.30;99.90;;;;;;5048240;28;20204;-34
2023/03/20 06:30:31;;;;;;;21.30;9.07;;;9.30;99.90;;;;;;5048001;28;20679;-34
2023/03/20 06:33:04;;;;;;;14.07;8.03;;;9.40;99.90;;;;;;5063201;28;20199;-34
2023/03/20 06:35:32;;;;;;;16.67;8.37;;;9.40;99.90;;;;;;5063378;28;20211;-34
2023/03/20 06:38:00;;;;;;;14.87;8.13;;;9.40;99.90;;;;;;5062867;28;20322;-32
2023/03/20 06:40:30;;;;;;;14.83;8.30;;;9.40;99.90;;;;;;5048008;28;20204;-33
2023/03/20 06:43:02;;;;;;;22.70;9.80;;;9.50;99.90;;;;;;5047918;28;20200;-33
2023/03/20 06:45:29;;;;;;;18.53;9.33;;;9.50;99.90;;;;;;5047816;28;20205;-33
2023/03/20 06:47:56;;;;;;;23.97;9.07;;;9.50;99.90;;;;;;5047673;28;20339;-33
2023/03/20 06:50:26;;;;;;;19.00;8.93;;;9.50;99.90;;;;;;5046603;28;20498;-34
2023/03/20 06:52:53;;;;;;;16.20;8.40;;;9.50;99.90;;;;;;5045791;28;20643;-32
2023/03/20 06:55:23;;;;;;;20.50;8.93;;;9.50;99.90;;;;;;5062919;28;20719;-32
2023/03/20 06:57:52;;;;;;;18.33;8.60;;;9.50;99.90;;;;;;5063284;28;20220;-32
2023/03/20 07:00:24;;;;;;;16.77;7.73;;;9.50;99.90;;;;;;5048628;28;20254;-33
2023/03/20 07:02:52;;;;;;;17.57;6.97;;;9.50;99.90;;;;;;5046907;28;20705;-33
2023/03/20 07:05:22;;;;;;;16.50;6.90;;;9.60;99.90;;;;;;5048092;28;20204;-33
2023/03/20 07:07:51;;;;;;;14.10;6.20;;;9.60;99.90;;;;;;5046822;28;20250;-33
2023/03/20 07:10:19;;;;;;;17.73;5.97;;;9.60;99.90;;;;;;5063146;28;20689;-33
2023/03/20 07:12:46;;;;;;;19.43;6.63;;;9.60;99.90;;;;;;5062885;28;20596;-33
2023/03/20 07:15:13;;;;;;;14.57;6.37;;;9.60;99.90;;;;;;5046319;28;20290;-33
2023/03/20 07:17:43;;;;;;;14.23;5.10;;;9.70;99.90;;;;;;5047971;28;20228;-33
2023/03/20 07:20:10;;;;;;;12.70;5.13;;;9.70;99.90;;;;;;5047715;28;20215;-33
2023/03/20 07:22:38;;;;;;;13.07;5.27;;;9.70;99.90;;;;;;5047712;28;20401;-33
2023/03/20 07:25:09;;;;;;;14.73;5.50;;;9.70;99.90;;;;;;5047586;28;20192;-33
2023/03/20 07:27:45;;;;;;;13.00;5.30;;;9.70;99.90;;;;;;5046638;28;20504;-33
2023/03/20 07:30:15;;;;;;;12.07;5.73;;;9.70;99.90;;;;;;5047365;28;20200;-33
2023/03/20 07:32:42;;;;;;;13.13;5.70;;;9.70;99.90;;;;;;5062155;28;20295;-33
2023/03/20 07:35:12;;;;;;;20.73;6.63;;;9.80;99.90;;;;;;5045777;28;20207;-33
2023/03/20 07:37:44;;;;;;;19.33;6.67;;;9.80;99.90;;;;;;5062259;28;20771;-33
2023/03/20 07:40:12;;;;;;;14.03;5.93;;;9.80;99.90;;;;;;5062419;28;20698;-33
2023/03/20 07:42:39;;;;;;;16.20;6.40;;;9.80;99.90;;;;;;5046919;28;20350;-33
2023/03/20 07:45:10;;;;;;;13.97;6.20;;;9.90;99.90;;;;;;5061545;28;20252;-33
2023/03/20 07:47:37;;;;;;;16.60;6.67;;;9.90;99.90;;;;;;5062283;28;20294;-33
2023/03/20 07:50:05;;;;;;;20.10;6.07;;;9.90;99.90;;;;;;5047489;28;20212;-33
2023/03/20 07:52:36;;;;;;;15.87;6.17;;;9.90;99.90;;;;;;5047246;28;20287;-33
2023/03/20 07:55:04;;;;;;;8.97;4.97;;;10.00;99.90;;;;;;5061932;28;20232;-33
2023/03/20 07:57:34;;;;;;;17.33;5.77;;;10.00;99.90;;;;;;5045296;28;20228;-33
2023/03/20 08:00:03;;;;;;;13.27;5.20;;;10.00;99.90;;;;;;5061931;28;20703;-33
2023/03/20 08:02:33;;;;;;;13.50;5.43;;;10.00;99.90;;;;;;5045598;28;20216;-33
2023/03/20 08:05:06;;;;;;;14.67;5.80;;;10.10;99.90;;;;;;5061528;28;20571;-33
2023/03/20 08:07:34;;;;;;;13.73;5.27;;;10.10;99.90;;;;;;5045478;28;20848;-33
2023/03/20 08:10:04;;;;;;;15.47;4.97;;;10.20;99.90;;;;;;5046879;28;20663;-33
2023/03/20 08:12:33;;;;;;;12.77;5.10;;;10.20;99.90;;;;;;5046403;28;20282;-33
2023/03/20 08:15:01;;;;;;;14.23;4.67;;;10.20;99.90;;;;;;5061659;28;20208;-33
2023/03/20 08:17:30;;;;;;;12.53;4.80;;;10.30;99.90;;;;;;5047004;28;20231;-33
2023/03/20 08:20:00;;;;;;;9.73;4.97;;;10.30;99.90;;;;;;5061538;28;20300;-33
2023/03/20 08:22:29;;;;;;;9.37;4.43;;;10.30;99.90;;;;;;5061503;28;20740;-33
2023/03/20 08:25:01;;;;;;;12.70;4.57;;;10.30;99.90;;;;;;5061334;28;20360;-33
2023/03/20 08:27:31;;;;;;;10.50;4.50;;;10.40;99.90;;;;;;5046948;28;20642;-33
2023/03/20 08:30:04;;;;;;;13.47;4.90;;;10.40;99.90;;;;;;5061789;28;20780;-33
2023/03/20 08:32:36;;;;;;;17.43;4.23;;;10.40;99.90;;;;;;5044864;28;20298;-33
2023/03/20 08:35:07;;;;;;;16.30;5.23;;;10.50;99.90;;;;;;5061550;28;20203;-33
2023/03/20 08:37:50;;;;;;;19.60;5.60;;;10.50;99.90;;;;;;5045923;28;20235;-33
2023/03/20 08:40:17;;;;;;;18.53;4.70;;;10.50;99.90;;;;;;5046667;28;20199;-33
2023/03/20 08:42:45;;;;;;;17.60;4.97;;;10.50;99.90;;;;;;5061498;28;20257;-32
2023/03/20 08:45:12;;;;;;;31.80;6.53;;;10.50;99.90;;;;;;5046440;28;20196;-32
2023/03/20 08:47:42;;;;;;;23.00;5.57;;;10.60;99.90;;;;;;5061021;28;20246;-32
2023/03/20 08:50:10;;;;;;;13.93;5.13;;;10.60;99.90;;;;;;5045983;28;20296;-32
2023/03/20 08:52:43;;;;;;;13.87;4.73;;;10.60;99.90;;;;;;5061086;28;20257;-32
2023/03/20 08:55:11;;;;;;;8.00;4.07;;;10.60;99.90;;;;;;5061101;28;20492;-32
2023/03/20 08:57:41;;;;;;;11.47;4.27;;;10.60;99.90;;;;;;5045886;28;20324;-33
2023/03/20 09:00:11;;;;;;;17.37;5.03;;;10.60;99.90;;;;;;5044650;28;20239;-32
2023/03/20 09:02:39;;;;;;;18.87;4.87;;;10.60;99.90;;;;;;5061058;28;20579;-32
2023/03/20 09:05:07;;;;;;;15.57;4.80;;;10.60;99.90;;;;;;5061072;28;20287;-32
2023/03/20 09:07:34;;;;;;;14.80;4.77;;;10.60;99.90;;;;;;5045971;28;20200;-32
2023/03/20 09:10:04;;;;;;;12.50;3.83;;;10.60;99.90;;;;;;5045781;28;20323;-33
2023/03/20 09:12:34;;;;;;;15.40;4.27;;;10.70;99.90;;;;;;5061779;28;20630;-32
2023/03/20 09:15:02;;;;;;;16.53;4.87;;;10.70;99.90;;;;;;5061547;28;20694;-33
2023/03/20 09:17:30;;;;;;;18.73;4.30;;;10.70;99.90;;;;;;5064885;28;20265;-32
2023/03/20 09:20:00;;;;;;;14.80;3.87;;;10.80;99.90;;;;;;5050042;28;20576;-32
2023/03/20 09:22:29;;;;;;;8.43;3.60;;;10.80;99.90;;;;;;5050333;28;20295;-33
2023/03/20 09:24:57;;;;;;;14.90;4.17;;;10.80;99.90;;;;;;5032475;28;20196;-33
2023/03/20 09:27:28;;;;;;;15.33;4.33;;;10.80;99.90;;;;;;5064890;28;20223;-33
2023/03/20 09:29:58;;;;;;;11.27;4.57;;;10.80;99.90;;;;;;5065092;28;20565;-32
2023/03/20 09:32:25;;;;;;;12.63;3.67;;;10.90;99.90;;;;;;5049886;28;20208;-32
2023/03/20 09:34:54;;;;;;;11.27;3.80;;;10.90;99.90;;;;;;5064598;28;20212;-32
2023/03/20 09:37:26;;;;;;;14.63;4.03;;;10.90;99.90;;;;;;5049792;28;20301;-33
2023/03/20 09:39:58;;;;;;;8.43;3.80;;;11.00;99.90;;;;;;5064597;28;20361;-33
2023/03/20 09:42:33;;;;;;;16.00;4.07;;;11.00;99.90;;;;;;5049835;28;20687;-32
2023/03/20 09:45:33;;;;;;;11.80;3.97;;;11.10;99.90;;;;;;5049828;28;20208;-33
2023/03/20 09:48:23;;;;;;;8.47;3.80;;;11.10;99.90;;;;;;5050090;28;20307;-33
2023/03/20 09:51:24;;;;;;;11.13;3.97;;;11.20;99.90;;;;;;5064770;28;20689;-32
2023/03/20 09:53:56;;;;;;;10.67;3.90;;;11.20;99.90;;;;;;5049442;28;20833;-33
2023/03/20 09:56:29;;;;;;;11.33;3.83;;;11.30;99.90;;;;;;5049242;28;20204;-32
2023/03/20 09:59:05;;;;;;;10.27;4.00;;;11.40;99.90;;;;;;5049170;28;20643;-33
2023/03/20 10:01:47;;;;;;;11.10;4.23;;;11.40;99.90;;;;;;5064154;28;20207;-33
2023/03/20 10:04:15;;;;;;;11.97;3.73;;;11.50;99.90;;;;;;5048036;28;20674;-33
2023/03/20 10:06:47;;;;;;;11.63;4.00;;;11.50;99.90;;;;;;5063835;28;20270;-33
2023/03/20 10:09:25;;;;;;;10.13;3.60;;;11.60;99.90;;;;;;5048978;28;20199;-32
2023/03/20 10:12:23;;;;;;;11.30;3.60;;;11.70;99.90;;;;;;5049588;28;20563;-33
2023/03/20 10:15:14;;;;;;;16.43;5.27;;;11.80;99.90;;;;;;5048764;28;20331;-33
2023/03/20 10:18:15;;;;;;;15.40;4.70;;;11.90;99.90;;;;;;5048797;28;20220;-33
2023/03/20 10:20:56;;;;;;;9.30;3.90;;;11.90;99.90;;;;;;5048660;28;20288;-32
2023/03/20 10:23:38;;;;;;;11.53;4.37;;;11.90;99.90;;;;;;5064033;28;20203;-32
2023/03/20 10:26:12;;;;;;;10.73;4.27;;;12.00;99.90;;;;;;5063928;28;20200;-33
2023/03/20 10:28:57;;;;;;;15.30;5.03;;;12.00;99.90;;;;;;5047341;28;20591;-33
2023/03/20 10:31:44;;;;;;;14.50;4.40;;;12.10;99.90;;;;;;5063829;28;20638;-33
2023/03/20 10:34:11;;;;;;;8.73;3.87;;;12.10;99.90;;;;;;5063750;28;20592;-33
2023/03/20 10:37:00;;;;;;;11.53;4.30;;;12.20;99.90;;;;;;5048580;28;20192;-33
2023/03/20 10:39:50;;;;;;;11.03;4.37;;;12.20;99.90;;;;;;5063700;28;20685;-33
2023/03/20 10:42:24;;;;;;;12.80;4.40;;;12.20;99.90;;;;;;5048319;28;20690;-33
2023/03/20 10:45:14;;;;;;;11.10;3.93;;;12.30;99.90;;;;;;5048858;28;20298;-33
2023/03/20 10:47:48;;;;;;;15.57;4.00;;;12.30;99.90;;;;;;5063473;28;20683;-32
2023/03/20 10:50:30;;;;;;;11.47;3.67;;;12.40;99.90;;;;;;5063376;28;20286;-33
2023/03/20 10:52:59;;;;;;;9.77;3.60;;;12.40;99.90;;;;;;5048501;28;20612;-32
2023/03/20 10:55:36;;;;;;;11.43;3.73;;;12.40;99.90;;;;;;5063447;28;20219;-33
2023/03/20 10:58:27;;;;;;;13.63;3.83;;;12.50;99.90;;;;;;5048079;28;20604;-34
2023/03/20 11:00:59;;;;;;;12.13;3.93;;;12.50;99.90;;;;;;5046473;28;20262;-32
2023/03/20 11:03:30;;;;;;;10.50;4.10;;;12.50;99.90;;;;;;5062904;28;20266;-33
2023/03/20 11:06:22;;;;;;;12.30;3.60;;;12.60;99.90;;;;;;5063902;28;20230;-33
2023/03/20 11:08:51;;;;;;;12.37;3.77;;;12.60;99.90;;;;;;5047819;28;20825;-32
2023/03/20 11:11:29;;;;;;;12.90;3.63;;;12.50;99.90;;;;;;5062946;28;20204;-32
2023/03/20 11:13:57;;;;;;;11.93;3.80;;;12.60;99.90;;;;;;5048243;28;20231;-33
2023/03/20 11:16:37;;;;;;;11.67;3.40;;;12.60;99.90;;;;;;5047558;28;20246;-33
2023/03/20 11:19:10;;;;;;;8.07;3.43;;;12.60;99.90;;;;;;5045816;28;20318;-33
2023/03/20 11:21:55;;;;;;;11.53;3.50;;;12.60;99.90;;;;;;5062891;28;20206;-33
2023/03/20 11:24:39;;;;;;;8.30;3.33;;;12.60;99.90;;;;;;5046383;28;20211;-33
2023/03/20 11:27:21;;;;;;;13.80;3.73;;;12.60;99.90;;;;;;5062646;28;20646;-33
2023/03/20 11:29:53;;;;;;;11.03;3.03;;;12.70;99.90;;;;;;5062373;28;20315;-33
2023/03/20 11:32:40;;;;;;;9.40;3.40;;;12.70;99.90;;;;;;5045759;28;20299;-33
2023/03/20 11:35:32;;;;;;;17.07;4.00;;;12.80;99.90;;;;;;5046128;28;20217;-33
2023/03/20 11:38:18;;;;;;;8.80;3.60;;;12.90;99.90;;;;;;5047360;28;20234;-33
2023/03/20 11:40:48;;;;;;;11.60;3.30;;;12.90;99.90;;;;;;5045736;28;20642;-34
2023/03/20 11:43:24;;;;;;;7.57;2.80;;;13.00;99.90;;;;;;5048019;28;20640;-33
2023/03/20 11:45:57;;;;;;;8.10;3.47;;;13.10;99.90;;;;;;5047307;28;20229;-32
2023/03/20 11:48:46;;;;;;;9.17;2.40;;;13.20;99.90;;;;;;5062132;28;20211;-33
2023/03/20 11:51:20;;;;;;;5.97;2.57;;;13.30;99.90;;;;;;5047142;28;20196;-33
2023/03/20 11:53:47;;;;;;;11.70;2.83;;;13.40;99.90;;;;;;5062234;28;20270;-33
2023/03/20 11:56:27;;;;;;;15.43;3.60;;;13.50;99.90;;;;;;5062068;28;20667;-33
2023/03/20 11:59:17;;;;;;;14.13;3.23;;;13.60;99.90;;;;;;5045805;28;20220;-31
2023/03/20 12:01:57;;;;;;;12.60;3.70;;;13.70;99.90;;;;;;5045421;28;20204;-31
2023/03/20 12:04:36;;;;;;;11.00;3.10;;;13.70;99.90;;;;;;5045590;28;20714;-31
2023/03/20 12:07:16;;;;;;;14.43;4.40;;;13.70;99.90;;;;;;5046311;28;20222;-33
2023/03/20 12:09:47;;;;;;;8.37;3.27;;;13.70;99.90;;;;;;5061212;28;20834;-33
2023/03/20 12:12:35;;;;;;;12.27;3.10;;;13.70;99.90;;;;;;5061868;28;20199;-34
2023/03/20 12:15:11;;;;;;;7.43;2.93;;;13.80;99.90;;;;;;5062162;28;20208;-33
2023/03/20 12:18:02;;;;;;;11.00;3.37;;;13.80;99.90;;;;;;5045096;28;20240;-31
2023/03/20 12:20:35;;;;;;;10.87;4.03;;;13.90;99.90;;;;;;5047029;28;20303;-33
2023/03/20 12:23:12;;;;;;;7.90;3.50;;;13.80;99.90;;;;;;5061866;28;20250;-33
2023/03/20 12:26:02;;;;;;;9.57;3.37;;;13.90;99.90;;;;;;5061560;28;20253;-31
2023/03/20 12:28:47;;;;;;;11.13;3.57;;;13.90;99.90;;;;;;5061482;28;20571;-31
2023/03/20 12:31:28;;;;;;;10.27;3.40;;;13.90;99.90;;;;;;5046046;28;20208;-31
2023/03/20 12:34:09;;;;;;;8.30;3.73;;;13.80;99.90;;;;;;5061621;28;20207;-32
2023/03/20 12:36:45;;;;;;;14.43;3.57;;;13.70;99.90;;;;;;5046564;28;20226;-31
2023/03/20 12:39:23;;;;;;;11.27;4.40;;;13.80;99.90;;;;;;5045097;28;20319;-31
2023/03/20 12:42:13;;;;;;;9.20;3.50;;;13.80;99.90;;;;;;5046312;28;20200;-30
2023/03/20 12:44:49;;;;;;;12.43;3.87;;;13.80;99.90;;;;;;5061009;28;20212;-31
2023/03/20 12:47:46;;;;;;;10.40;3.67;;;13.80;99.90;;;;;;5044712;28;20287;-33
2023/03/20 12:50:33;;;;;;;9.30;3.40;;;13.80;99.90;;;;;;5061156;28;20215;-31
2023/03/20 12:53:10;;;;;;;12.50;4.13;;;13.80;99.90;;;;;;5044758;28;20204;-31
2023/03/20 12:55:57;;;;;;;9.33;3.63;;;13.80;99.90;;;;;;5046060;28;20243;-31
2023/03/20 12:58:42;;;;;;;10.97;4.17;;;13.90;99.90;;;;;;5046252;28;20592;-33
2023/03/20 13:01:24;;;;;;;10.47;4.03;;;13.90;99.90;;;;;;5060705;28;20197;-32
2023/03/20 13:04:23;;;;;;;9.10;3.33;;;13.90;99.90;;;;;;5060927;28;20215;-32
2023/03/20 13:06:58;;;;;;;12.97;3.40;;;13.90;99.90;;;;;;5018086;28;20503;-32
2023/03/20 13:09:28;;;;;;;9.67;3.63;;;13.90;99.90;;;;;;5045537;28;20282;-32
2023/03/20 13:12:14;;;;;;;8.20;3.37;;;14.00;99.90;;;;;;5061392;28;20718;-32
2023/03/20 13:14:51;;;;;;;10.18;3.33;;;14.00;99.90;;;;;;5046186;28;20710;-32
2023/03/20 13:17:29;;;;;;;10.43;3.30;;;14.00;99.90;;;;;;5045673;28;20228;-32